Time;durP1;ratioP1;P1;durP2;ratioP2;P2;SDS_P1;SDS_P2;PMS_P1;PMS_P2;Temp;Humidity;BMP_temperature;BMP_pressure;BME280_temperature;BME280_humidity;BME280_pressure;Samples;Min_cycle;Max_cycle;Signal;HPM_P1;HPM_P2
2021/06/12 00:02:11;;;;;;;0.00;0.00;;;19.70;66.50;;;;;;5034821;28;20049;-71
2021/06/12 00:04:37;;;;;;;0.00;0.00;;;19.70;66.70;;;;;;5033315;28;20057;-71
2021/06/12 00:07:04;;;;;;;0.00;0.00;;;19.80;66.60;;;;;;5032772;28;20507;-71
2021/06/12 00:09:30;;;;;;;0.00;0.00;;;19.80;66.70;;;;;;5037265;28;20041;-71
2021/06/12 00:11:56;;;;;;;0.00;0.00;;;19.80;66.70;;;;;;5042970;28;20052;-70
2021/06/12 00:14:23;;;;;;;0.00;0.00;;;19.80;66.70;;;;;;5037795;28;20125;-71
2021/06/12 00:16:50;;;;;;;0.00;0.00;;;19.80;66.70;;;;;;5034000;28;20053;-70
2021/06/12 00:19:16;;;;;;;0.00;0.00;;;19.80;66.80;;;;;;5039154;28;20519;-71
2021/06/12 00:21:42;;;;;;;0.00;0.00;;;19.80;67.00;;;;;;5040561;28;20049;-71
2021/06/12 00:24:09;;;;;;;0.00;0.00;;;19.90;66.90;;;;;;5033872;28;20049;-71
2021/06/12 00:26:37;;;;;;;0.00;0.00;;;19.90;67.00;;;;;;5033619;28;20049;-71
2021/06/12 00:29:05;;;;;;;0.00;0.00;;;19.90;67.10;;;;;;5045273;28;20041;-71
2021/06/12 00:31:32;;;;;;;0.00;0.00;;;19.90;67.00;;;;;;5032972;28;20104;-71
2021/06/12 00:33:58;;;;;;;0.00;0.00;;;19.90;67.00;;;;;;5033596;28;20619;-71
2021/06/12 00:36:25;;;;;;;0.00;0.00;;;19.90;67.30;;;;;;5015543;28;20080;-71
2021/06/12 00:38:52;;;;;;;0.00;0.00;;;19.90;67.10;;;;;;5033676;28;20045;-71
2021/06/12 00:41:20;;;;;;;0.00;0.00;;;19.90;67.00;;;;;;5033588;28;20132;-71
2021/06/12 00:43:47;;;;;;;0.00;0.00;;;19.90;67.20;;;;;;5034017;28;20132;-71
2021/06/12 00:46:13;;;;;;;0.00;0.00;;;19.90;67.00;;;;;;5033975;28;20171;-71
2021/06/12 00:48:44;;;;;;;0.00;0.00;;;19.90;67.10;;;;;;5031511;28;20129;-71
2021/06/12 00:51:11;;;;;;;0.00;0.00;;;19.90;67.10;;;;;;5033464;28;20091;-71
2021/06/12 00:53:41;;;;;;;0.00;0.00;;;19.90;67.10;;;;;;5033459;28;20056;-71
2021/06/12 00:56:13;;;;;;;0.00;0.00;;;19.90;67.40;;;;;;5033495;28;20270;-71
2021/06/12 00:58:42;;;;;;;0.00;0.00;;;19.90;67.40;;;;;;5043257;28;20049;-70
2021/06/12 01:01:14;;;;;;;0.00;0.00;;;19.90;67.50;;;;;;5033233;28;20516;-71
2021/06/12 01:03:42;;;;;;;0.00;0.00;;;19.80;68.30;;;;;;5032763;28;20045;-71
2021/06/12 01:06:09;;;;;;;0.00;0.00;;;19.80;67.60;;;;;;5033180;28;20519;-70
2021/06/12 01:08:37;;;;;;;0.00;0.00;;;19.80;67.70;;;;;;5033125;28;20052;-71
2021/06/12 01:11:05;;;;;;;0.00;0.00;;;19.80;67.70;;;;;;5041347;28;20132;-71
2021/06/12 01:13:49;;;;;;;0.00;0.00;;;19.80;67.80;;;;;;5034080;28;20045;-71
2021/06/12 01:16:28;;;;;;;0.00;0.00;;;19.80;67.80;;;;;;5032744;28;20109;-71
2021/06/12 01:18:57;;;;;;;0.00;0.00;;;19.80;68.80;;;;;;5019665;28;20095;-71
2021/06/12 01:21:30;;;;;;;0.00;0.00;;;19.80;67.90;;;;;;5032967;28;20046;-71
2021/06/12 01:24:20;;;;;;;0.00;0.00;;;19.70;67.90;;;;;;5032387;28;20132;-71
2021/06/12 01:27:23;;;;;;;0.00;0.00;;;19.70;68.10;;;;;;5032658;28;20049;-71
2021/06/12 01:30:08;;;;;;;0.00;0.00;;;19.70;68.10;;;;;;5033543;28;20128;-71
2021/06/12 01:32:38;;;;;;;0.00;0.00;;;19.70;68.20;;;;;;5019238;28;20570;-71
2021/06/12 01:35:12;;;;;;;0.00;0.00;;;19.70;68.40;;;;;;5014319;28;20072;-70
2021/06/12 01:37:42;;;;;;;0.00;0.00;;;19.70;68.50;;;;;;5032503;28;20083;-71
2021/06/12 01:40:11;;;;;;;0.00;0.00;;;19.70;68.80;;;;;;5032711;28;20045;-71
2021/06/12 01:42:41;;;;;;;0.00;0.00;;;19.70;68.70;;;;;;5031924;28;20119;-71
2021/06/12 01:45:08;;;;;;;0.00;0.00;;;19.60;68.60;;;;;;5032545;28;20098;-71
2021/06/12 01:47:34;;;;;;;0.00;0.00;;;19.60;68.70;;;;;;5032249;28;20081;-71
2021/06/12 01:50:03;;;;;;;0.00;0.00;;;19.70;68.70;;;;;;5032335;28;20136;-71
2021/06/12 01:52:31;;;;;;;0.00;0.00;;;19.70;68.80;;;;;;5032058;28;20403;-71
2021/06/12 01:54:59;;;;;;;0.00;0.00;;;19.70;68.80;;;;;;5032243;28;20046;-71
2021/06/12 01:57:27;;;;;;;0.00;0.00;;;19.70;69.10;;;;;;5032553;28;20180;-71
2021/06/12 01:59:55;;;;;;;0.00;0.00;;;19.60;69.10;;;;;;5031407;28;20057;-71
2021/06/12 02:02:22;;;;;;;0.00;0.00;;;19.60;69.00;;;;;;5032602;28;20080;-71
2021/06/12 02:04:50;;;;;;;0.00;0.00;;;19.60;69.00;;;;;;5032058;28;20132;-71
2021/06/12 02:07:19;;;;;;;0.00;0.00;;;19.60;68.90;;;;;;5036285;28;20572;-71
2021/06/12 02:09:47;;;;;;;0.00;0.00;;;19.60;69.00;;;;;;5031736;28;20049;-70
2021/06/12 02:12:15;;;;;;;0.00;0.00;;;19.60;69.00;;;;;;5032249;28;20045;-70
2021/06/12 02:14:42;;;;;;;0.00;0.00;;;19.60;69.00;;;;;;5040587;28;20037;-70
2021/06/12 02:17:10;;;;;;;0.00;0.00;;;19.60;69.00;;;;;;5031178;28;20124;-70
2021/06/12 02:19:39;;;;;;;0.00;0.00;;;19.60;68.90;;;;;;5031973;28;20120;-70
2021/06/12 02:22:06;;;;;;;0.00;0.00;;;19.60;68.90;;;;;;5031937;28;20129;-71
2021/06/12 02:24:33;;;;;;;0.00;0.00;;;19.60;69.00;;;;;;5032071;28;20114;-71
2021/06/12 02:27:01;;;;;;;0.00;0.00;;;19.60;69.00;;;;;;5031662;28;20045;-71
2021/06/12 02:29:28;;;;;;;0.00;0.00;;;19.60;69.20;;;;;;5031669;28;20057;-71
2021/06/12 02:32:05;;;;;;;0.00;0.00;;;19.60;69.20;;;;;;5030413;28;20088;-71
2021/06/12 02:34:33;;;;;;;0.00;0.00;;;19.50;69.80;;;;;;5031757;28;20050;-71
2021/06/12 02:37:00;;;;;;;0.00;0.00;;;19.50;69.60;;;;;;5031601;28;20052;-71
2021/06/12 02:39:26;;;;;;;0.00;0.00;;;19.50;69.70;;;;;;5031885;28;20493;-70
2021/06/12 02:41:53;;;;;;;0.00;0.00;;;19.50;69.60;;;;;;5031592;28;20564;-71
2021/06/12 02:44:19;;;;;;;0.00;0.00;;;19.40;69.60;;;;;;5031863;28;20052;-71
2021/06/12 02:46:47;;;;;;;0.00;0.00;;;19.40;69.70;;;;;;5031608;28;20187;-71
2021/06/12 02:49:18;;;;;;;0.00;0.00;;;19.40;69.60;;;;;;5030213;28;20042;-71
2021/06/12 02:51:51;;;;;;;0.00;0.00;;;19.40;69.70;;;;;;5031445;28;20188;-71
2021/06/12 02:54:22;;;;;;;0.00;0.00;;;19.30;69.70;;;;;;5032382;28;20037;-71
2021/06/12 02:56:50;;;;;;;0.00;0.00;;;19.30;69.80;;;;;;5031585;28;20050;-71
2021/06/12 02:59:18;;;;;;;0.00;0.00;;;19.30;69.80;;;;;;5012643;28;20056;-71
2021/06/12 03:01:46;;;;;;;0.00;0.00;;;19.30;70.00;;;;;;5031183;28;20132;-71
2021/06/12 03:04:15;;;;;;;0.00;0.00;;;19.20;70.10;;;;;;5031341;28;20081;-71
2021/06/12 03:06:44;;;;;;;0.00;0.00;;;19.20;70.20;;;;;;5033548;28;20515;-71
2021/06/12 03:09:21;;;;;;;0.00;0.00;;;19.20;70.20;;;;;;5040570;28;20402;-71
2021/06/12 03:11:54;;;;;;;0.00;0.00;;;19.10;70.20;;;;;;5031667;28;20052;-71
2021/06/12 03:14:22;;;;;;;0.00;0.00;;;19.10;71.20;;;;;;5034289;28;20394;-71
2021/06/12 03:16:50;;;;;;;0.00;0.00;;;19.10;70.30;;;;;;5034912;28;20183;-71
2021/06/12 03:19:17;;;;;;;0.00;0.00;;;19.10;70.40;;;;;;5035190;28;20045;-71
2021/06/12 03:21:44;;;;;;;0.00;0.00;;;19.00;70.40;;;;;;5035037;28;20568;-70
2021/06/12 03:24:12;;;;;;;0.00;0.00;;;19.00;71.30;;;;;;5035279;28;20111;-71
2021/06/12 03:26:39;;;;;;;0.00;0.00;;;19.00;70.30;;;;;;5035044;28;20058;-71
2021/06/12 03:29:07;;;;;;;0.00;0.00;;;19.00;70.30;;;;;;5036826;28;20080;-71
2021/06/12 03:31:34;;;;;;;0.00;0.00;;;19.00;70.30;;;;;;5039948;28;20124;-70
2021/06/12 03:34:01;;;;;;;0.00;0.00;;;19.00;70.40;;;;;;5034607;28;20139;-71
2021/06/12 03:36:28;;;;;;;0.00;0.00;;;19.00;70.50;;;;;;5034863;28;20041;-70
2021/06/12 03:38:55;;;;;;;0.00;0.00;;;19.00;70.50;;;;;;5035893;28;20496;-71
2021/06/12 03:41:23;;;;;;;0.00;0.00;;;19.00;70.70;;;;;;5034900;28;20548;-71
2021/06/12 03:43:50;;;;;;;0.00;0.00;;;18.90;71.10;;;;;;5036035;28;20128;-71
2021/06/12 03:46:18;;;;;;;0.00;0.00;;;18.80;71.10;;;;;;5035063;28;20129;-71
2021/06/12 03:48:47;;;;;;;0.00;0.00;;;18.80;71.10;;;;;;5034544;28;20042;-70
2021/06/12 03:51:16;;;;;;;0.00;0.00;;;18.80;70.90;;;;;;5034558;28;20053;-71
2021/06/12 03:53:47;;;;;;;0.00;0.00;;;18.80;70.80;;;;;;5034385;28;20135;-71
2021/06/12 03:56:22;;;;;;;0.00;0.00;;;18.80;70.90;;;;;;5034043;28;20085;-71
2021/06/12 03:58:50;;;;;;;0.00;0.00;;;18.80;70.90;;;;;;5034329;28;20053;-71
2021/06/12 04:01:18;;;;;;;0.00;0.00;;;18.80;70.80;;;;;;5034246;28;20580;-71
2021/06/12 04:03:45;;;;;;;0.00;0.00;;;18.80;70.80;;;;;;5034449;28;20053;-71
2021/06/12 04:06:12;;;;;;;0.00;0.00;;;18.80;70.70;;;;;;5034050;28;20037;-71
2021/06/12 04:08:39;;;;;;;0.00;0.00;;;18.80;70.70;;;;;;5034548;28;20102;-71
2021/06/12 04:11:06;;;;;;;0.00;0.00;;;18.80;70.70;;;;;;5034060;28;20045;-71
2021/06/12 04:13:33;;;;;;;0.00;0.00;;;18.80;70.70;;;;;;5034343;28;20125;-71
2021/06/12 04:16:00;;;;;;;0.00;0.00;;;18.80;70.80;;;;;;5033882;28;20551;-71
2021/06/12 04:18:26;;;;;;;0.00;0.00;;;18.90;70.80;;;;;;5033980;28;20076;-71
2021/06/12 04:20:53;;;;;;;0.00;0.00;;;18.90;70.90;;;;;;5034493;28;20045;-71
2021/06/12 04:23:19;;;;;;;0.00;0.00;;;18.90;71.10;;;;;;5033875;28;20053;-71
2021/06/12 04:25:45;;;;;;;0.00;0.00;;;18.90;71.10;;;;;;5033674;28;20129;-71
2021/06/12 04:28:12;;;;;;;0.00;0.00;;;18.90;71.30;;;;;;5033466;28;20180;-71
2021/06/12 04:30:38;;;;;;;0.00;0.00;;;18.80;71.40;;;;;;5033741;28;20045;-71
2021/06/12 04:33:05;;;;;;;0.00;0.00;;;18.80;71.50;;;;;;5033922;28;20049;-71
2021/06/12 04:35:32;;;;;;;0.00;0.00;;;18.80;71.70;;;;;;5033690;28;20527;-73
2021/06/12 04:37:59;;;;;;;0.00;0.00;;;18.70;71.90;;;;;;5033890;28;20128;-72
2021/06/12 04:40:31;;;;;;;0.00;0.00;;;18.70;72.10;;;;;;5033440;28;20358;-71
2021/06/12 04:42:58;;;;;;;0.00;0.00;;;18.70;72.30;;;;;;5033787;28;20046;-71
2021/06/12 04:45:25;;;;;;;0.00;0.00;;;18.60;72.50;;;;;;5037371;28;20053;-73
2021/06/12 04:47:52;;;;;;;0.00;0.00;;;18.50;72.60;;;;;;5015583;28;20079;-73
2021/06/12 04:50:18;;;;;;;0.00;0.00;;;18.50;72.40;;;;;;5015328;28;20049;-73
2021/06/12 04:52:45;;;;;;;0.00;0.00;;;18.50;72.20;;;;;;5032998;28;20045;-72
2021/06/12 04:55:12;;;;;;;0.00;0.00;;;18.60;72.10;;;;;;5034520;28;20041;-73
2021/06/12 04:57:39;;;;;;;0.00;0.00;;;18.60;72.00;;;;;;5033528;28;20069;-72
2021/06/12 05:00:09;;;;;;;0.00;0.00;;;18.60;72.10;;;;;;5033271;28;20180;-73
2021/06/12 05:02:35;;;;;;;0.00;0.00;;;18.70;72.20;;;;;;5033178;28;20140;-72
2021/06/12 05:05:02;;;;;;;0.00;0.00;;;18.60;72.10;;;;;;5033086;28;20132;-73
2021/06/12 05:07:28;;;;;;;0.00;0.00;;;18.70;72.00;;;;;;5033252;28;20132;-72
2021/06/12 05:09:54;;;;;;;0.00;0.00;;;18.70;72.00;;;;;;5039538;28;20140;-73
2021/06/12 05:12:20;;;;;;;0.00;0.00;;;18.70;71.90;;;;;;5032983;28;20129;-72
2021/06/12 05:14:49;;;;;;;0.00;0.00;;;18.70;71.90;;;;;;5033018;28;20045;-73
2021/06/12 05:17:17;;;;;;;0.00;0.00;;;18.80;72.00;;;;;;5034573;28;20547;-73
2021/06/12 05:19:44;;;;;;;0.00;0.00;;;18.80;72.10;;;;;;5052436;28;20045;-72
2021/06/12 05:22:10;;;;;;;0.00;0.00;;;18.80;72.00;;;;;;5033377;28;20085;-73
2021/06/12 05:24:37;;;;;;;0.00;0.00;;;18.80;72.20;;;;;;5032527;28;20155;-73
2021/06/12 05:27:06;;;;;;;0.00;0.00;;;18.80;72.10;;;;;;5032500;28;20099;-73
2021/06/12 05:29:33;;;;;;;0.00;0.00;;;18.80;72.10;;;;;;5022936;28;20390;-73
2021/06/12 05:31:59;;;;;;;0.00;0.00;;;18.80;72.10;;;;;;5045962;28;20052;-72
2021/06/12 05:34:25;;;;;;;0.00;0.00;;;18.80;71.90;;;;;;5031883;28;20123;-73
2021/06/12 05:36:52;;;;;;;0.00;0.00;;;18.80;71.80;;;;;;5032285;28;20049;-72
2021/06/12 05:39:18;;;;;;;0.00;0.00;;;18.80;71.80;;;;;;5032799;28;20556;-72
2021/06/12 05:41:44;;;;;;;0.00;0.00;;;18.80;71.80;;;;;;5043685;28;20126;-73
2021/06/12 05:44:11;;;;;;;0.00;0.00;;;18.80;71.80;;;;;;5040213;28;20054;-73
2021/06/12 05:46:37;;;;;;;0.00;0.00;;;18.80;71.70;;;;;;5032501;28;20564;-73
2021/06/12 05:49:03;;;;;;;0.00;0.00;;;18.90;71.70;;;;;;5038117;28;20120;-73
2021/06/12 05:51:30;;;;;;;0.00;0.00;;;18.90;71.60;;;;;;5034659;28;20473;-73
2021/06/12 05:53:56;;;;;;;0.00;0.00;;;18.90;71.60;;;;;;5031809;28;20049;-73
2021/06/12 05:56:22;;;;;;;0.00;0.00;;;19.00;71.70;;;;;;5032439;28;20060;-73
2021/06/12 05:58:49;;;;;;;0.00;0.00;;;19.00;71.70;;;;;;5032197;28;20095;-72
2021/06/12 06:01:15;;;;;;;0.00;0.00;;;19.00;71.70;;;;;;5031798;28;20180;-73
2021/06/12 06:03:41;;;;;;;0.00;0.00;;;19.00;71.50;;;;;;5031853;28;20533;-73
2021/06/12 06:06:08;;;;;;;0.00;0.00;;;19.10;71.50;;;;;;5031906;28;20127;-73
2021/06/12 06:08:35;;;;;;;0.00;0.00;;;19.10;71.50;;;;;;5033556;28;20102;-73
2021/06/12 06:11:04;;;;;;;0.00;0.00;;;19.10;71.50;;;;;;5027467;28;20187;-73
2021/06/12 06:13:41;;;;;;;0.00;0.00;;;19.10;71.40;;;;;;5031665;28;20467;-73
2021/06/12 06:16:08;;;;;;;0.00;0.00;;;19.10;71.40;;;;;;5031987;28;20184;-73
2021/06/12 06:18:36;;;;;;;0.00;0.00;;;19.20;71.20;;;;;;5031453;28;20526;-73
2021/06/12 06:21:04;;;;;;;0.00;0.00;;;19.20;71.00;;;;;;5031710;28;20522;-73
2021/06/12 06:23:31;;;;;;;0.00;0.00;;;19.20;70.80;;;;;;5034367;28;20056;-71
2021/06/12 06:25:57;;;;;;;0.00;0.00;;;19.20;70.70;;;;;;5013577;28;20049;-71
2021/06/12 06:28:24;;;;;;;0.00;0.00;;;19.20;70.50;;;;;;5031565;28;20156;-71
2021/06/12 06:30:50;;;;;;;0.00;0.00;;;19.20;70.50;;;;;;5031879;28;20073;-71
2021/06/12 06:33:17;;;;;;;0.00;0.00;;;19.20;70.40;;;;;;5031454;28;20076;-71
2021/06/12 06:35:43;;;;;;;0.00;0.00;;;19.30;70.20;;;;;;5031299;28;20041;-70
2021/06/12 06:38:09;;;;;;;0.00;0.00;;;19.30;70.20;;;;;;5031439;28;20128;-70
2021/06/12 06:40:36;;;;;;;0.00;0.00;;;19.30;71.20;;;;;;5031048;28;20386;-69
2021/06/12 06:43:02;;;;;;;0.00;0.00;;;19.30;70.20;;;;;;5030570;28;20155;-69
2021/06/12 06:45:28;;;;;;;0.00;0.00;;;19.30;70.10;;;;;;5031232;28;20627;-69
2021/06/12 06:47:55;;;;;;;0.00;0.00;;;19.30;70.00;;;;;;5030155;28;20138;-69
2021/06/12 06:50:21;;;;;;;0.00;0.00;;;19.30;70.10;;;;;;5030826;28;20136;-70
2021/06/12 06:52:49;;;;;;;0.00;0.00;;;19.30;70.10;;;;;;5030587;28;20037;-70
2021/06/12 06:55:17;;;;;;;0.00;0.00;;;19.30;70.10;;;;;;5031519;28;20045;-70
2021/06/12 06:57:43;;;;;;;0.00;0.00;;;19.30;70.10;;;;;;5032507;28;20041;-75
2021/06/12 07:00:10;;;;;;;0.00;0.00;;;19.20;70.00;;;;;;5031109;28;20061;-74
2021/06/12 07:02:37;;;;;;;0.00;0.00;;;19.20;70.00;;;;;;5029135;28;20077;-74
2021/06/12 07:05:03;;;;;;;0.00;0.00;;;19.30;70.10;;;;;;5029720;28;20049;-73
2021/06/12 07:07:30;;;;;;;0.00;0.00;;;19.30;70.00;;;;;;5030758;28;20132;-73
2021/06/12 07:09:56;;;;;;;0.00;0.00;;;19.30;70.00;;;;;;5031100;28;20176;-74
2021/06/12 07:12:23;;;;;;;0.00;0.00;;;19.40;70.00;;;;;;5029768;28;20045;-72
2021/06/12 07:14:49;;;;;;;0.00;0.00;;;19.40;70.10;;;;;;5030064;28;20124;-73
2021/06/12 07:17:16;;;;;;;0.00;0.00;;;19.50;70.30;;;;;;5031876;28;20086;-73
2021/06/12 07:19:42;;;;;;;0.00;0.00;;;19.50;70.20;;;;;;5031735;28;20128;-73
2021/06/12 07:22:08;;;;;;;0.00;0.00;;;19.50;70.20;;;;;;5031341;28;20049;-74
2021/06/12 07:24:35;;;;;;;0.00;0.00;;;19.50;70.20;;;;;;5031500;28;20160;-74
2021/06/12 07:27:02;;;;;;;0.00;0.00;;;19.50;70.10;;;;;;5026747;28;20060;-73
2021/06/12 07:29:28;;;;;;;0.00;0.00;;;19.60;70.20;;;;;;5032031;28;20053;-76
2021/06/12 07:31:54;;;;;;;0.00;0.00;;;19.60;70.20;;;;;;5031734;28;20053;-73
2021/06/12 07:34:21;;;;;;;0.00;0.00;;;19.70;70.20;;;;;;5031244;28;20713;-73
2021/06/12 07:36:47;;;;;;;0.00;0.00;;;19.70;70.00;;;;;;5036051;28;20057;-74
2021/06/12 07:39:14;;;;;;;0.00;0.00;;;19.80;69.90;;;;;;5031427;28;20132;-75
2021/06/12 07:41:40;;;;;;;0.00;0.00;;;19.80;69.60;;;;;;5031521;28;20049;-73
2021/06/12 07:44:07;;;;;;;0.00;0.00;;;19.80;69.40;;;;;;5031838;28;20416;-71
2021/06/12 07:46:34;;;;;;;0.00;0.00;;;19.80;69.30;;;;;;5031467;28;20469;-72
2021/06/12 07:49:01;;;;;;;0.00;0.00;;;19.80;69.20;;;;;;5031406;28;20135;-72
2021/06/12 07:51:32;;;;;;;0.00;0.00;;;19.80;69.10;;;;;;5031612;28;20053;-72
2021/06/12 07:53:59;;;;;;;0.00;0.00;;;19.90;69.00;;;;;;5037969;28;20044;-74
2021/06/12 07:56:26;;;;;;;0.00;0.00;;;19.90;68.80;;;;;;5046297;28;20064;-73
2021/06/12 07:58:53;;;;;;;0.00;0.00;;;19.90;68.60;;;;;;5030378;28;20053;-73
2021/06/12 08:01:19;;;;;;;0.00;0.00;;;20.00;68.50;;;;;;5034708;28;20136;-74
2021/06/12 08:03:45;;;;;;;0.00;0.00;;;20.00;68.50;;;;;;5034335;28;20436;-72
2021/06/12 08:06:12;;;;;;;0.00;0.00;;;20.00;68.30;;;;;;5034735;28;20421;-71
2021/06/12 08:08:38;;;;;;;0.00;0.00;;;20.10;68.20;;;;;;5034422;28;20124;-71
2021/06/12 08:11:04;;;;;;;0.00;0.00;;;20.10;68.30;;;;;;5034678;28;20191;-72
2021/06/12 08:13:31;;;;;;;0.10;0.00;;;20.10;68.30;;;;;;5034546;28;20103;-72
2021/06/12 08:15:57;;;;;;;0.00;0.00;;;20.20;68.30;;;;;;5029670;28;20077;-72
2021/06/12 08:18:24;;;;;;;0.00;0.00;;;20.10;68.10;;;;;;5013803;28;20121;-72
2021/06/12 08:20:50;;;;;;;0.00;0.00;;;20.10;68.00;;;;;;5024081;28;20489;-70
2021/06/12 08:23:17;;;;;;;0.00;0.00;;;20.10;68.10;;;;;;5024312;28;20057;-71
2021/06/12 08:25:44;;;;;;;0.00;0.00;;;20.10;68.10;;;;;;5022825;28;20128;-71
2021/06/12 08:28:10;;;;;;;0.00;0.00;;;20.10;68.00;;;;;;5034831;28;20096;-73
2021/06/12 08:30:36;;;;;;;0.00;0.00;;;20.10;68.00;;;;;;5016542;28;20056;-71
2021/06/12 08:33:03;;;;;;;0.00;0.00;;;20.10;68.10;;;;;;5034332;28;20491;-73
2021/06/12 08:35:30;;;;;;;0.00;0.00;;;20.10;68.20;;;;;;5034463;28;20104;-71
2021/06/12 08:37:57;;;;;;;0.00;0.00;;;20.10;68.10;;;;;;5034156;28;20612;-71
2021/06/12 08:40:24;;;;;;;0.00;0.00;;;20.10;68.00;;;;;;5034005;28;20469;-71
2021/06/12 08:42:51;;;;;;;0.00;0.00;;;20.10;68.00;;;;;;5034423;28;20133;-71
2021/06/12 08:45:19;;;;;;;0.00;0.00;;;20.20;68.10;;;;;;5039515;28;20045;-71
2021/06/12 08:47:46;;;;;;;0.00;0.00;;;20.20;68.10;;;;;;5034092;28;20151;-71
2021/06/12 08:50:13;;;;;;;0.00;0.00;;;20.30;67.70;;;;;;5034641;28;20041;-71
2021/06/12 08:52:40;;;;;;;0.00;0.00;;;20.30;67.60;;;;;;5033488;28;20099;-71
2021/06/12 08:55:08;;;;;;;0.00;0.00;;;20.40;67.60;;;;;;5033328;28;20077;-71
2021/06/12 08:57:35;;;;;;;0.00;0.00;;;20.50;67.10;;;;;;5031538;28;20049;-71
2021/06/12 09:00:03;;;;;;;0.00;0.00;;;20.50;67.00;;;;;;5032938;28;20133;-70
2021/06/12 09:03:09;;;;;;;0.00;0.00;;;20.60;66.90;;;;;;5033269;28;20556;-71
2021/06/12 09:05:43;;;;;;;0.00;0.00;;;20.60;66.80;;;;;;5033532;28;20065;-71
2021/06/12 09:08:12;;;;;;;0.00;0.00;;;20.60;66.50;;;;;;5035785;28;20124;-72
2021/06/12 09:11:12;;;;;;;0.00;0.00;;;20.70;66.60;;;;;;5037492;28;20136;-72
2021/06/12 09:13:42;;;;;;;0.00;0.00;;;20.70;66.60;;;;;;5024098;28;20075;-71
2021/06/12 09:16:35;;;;;;;0.00;0.00;;;20.70;66.50;;;;;;5034221;28;20133;-71
2021/06/12 09:19:06;;;;;;;0.00;0.00;;;20.80;66.60;;;;;;5038686;28;20050;-72
2021/06/12 09:21:44;;;;;;;0.00;0.00;;;20.80;66.60;;;;;;5032590;28;20056;-72
2021/06/12 09:24:21;;;;;;;0.00;0.00;;;20.80;66.70;;;;;;5026479;28;20502;-72
2021/06/12 09:26:58;;;;;;;0.10;0.10;;;20.80;66.70;;;;;;5022764;28;20075;-73
2021/06/12 09:29:35;;;;;;;0.00;0.00;;;20.90;66.60;;;;;;5026050;28;20058;-72
2021/06/12 09:32:09;;;;;;;0.00;0.00;;;20.90;66.30;;;;;;5029779;28;20057;-73
2021/06/12 09:34:35;;;;;;;0.00;0.00;;;21.00;66.20;;;;;;5021781;28;20045;-72
2021/06/12 09:37:12;;;;;;;0.00;0.00;;;21.10;66.30;;;;;;5029432;28;20061;-72
2021/06/12 09:39:39;;;;;;;0.00;0.00;;;21.10;65.70;;;;;;5027690;28;20106;-72
2021/06/12 09:42:05;;;;;;;0.00;0.00;;;21.10;65.70;;;;;;5029247;28;20092;-72
2021/06/12 09:44:33;;;;;;;0.00;0.00;;;21.10;65.70;;;;;;5028766;28;20134;-72
2021/06/12 09:47:05;;;;;;;0.00;0.00;;;21.20;65.70;;;;;;5024182;28;20095;-72
2021/06/12 09:49:37;;;;;;;0.10;0.10;;;21.30;65.60;;;;;;5025562;28;20049;-73
2021/06/12 09:52:10;;;;;;;0.00;0.00;;;21.40;65.60;;;;;;5021103;28;20082;-72
2021/06/12 09:54:39;;;;;;;0.00;0.00;;;21.40;65.30;;;;;;5026463;28;20128;-72
2021/06/12 09:57:07;;;;;;;0.00;0.00;;;21.40;65.20;;;;;;5029406;28;20056;-73
2021/06/12 09:59:48;;;;;;;0.00;0.00;;;21.50;65.00;;;;;;5028343;28;20049;-72
2021/06/12 10:02:36;;;;;;;0.00;0.00;;;21.60;64.90;;;;;;5028874;28;20118;-72
2021/06/12 10:05:04;;;;;;;0.10;0.00;;;21.60;64.80;;;;;;5028434;28;20074;-72
2021/06/12 10:07:31;;;;;;;0.00;0.00;;;21.70;64.70;;;;;;5028754;28;20049;-72
2021/06/12 10:10:02;;;;;;;0.03;0.00;;;21.70;64.60;;;;;;5028798;28;20496;-72
2021/06/12 10:12:29;;;;;;;0.10;0.00;;;21.80;64.50;;;;;;5028883;28;20048;-72
2021/06/12 10:14:57;;;;;;;0.00;0.00;;;21.80;64.20;;;;;;5027775;28;20692;-71
2021/06/12 10:17:24;;;;;;;0.00;0.00;;;21.80;63.90;;;;;;5028261;28;20114;-71
2021/06/12 10:19:52;;;;;;;0.00;0.00;;;21.80;63.70;;;;;;5026469;28;20049;-72
2021/06/12 10:22:19;;;;;;;0.00;0.00;;;21.80;63.80;;;;;;5027732;28;20128;-72
2021/06/12 10:24:48;;;;;;;0.00;0.00;;;21.90;64.00;;;;;;5028138;28;20539;-72
2021/06/12 10:27:16;;;;;;;0.00;0.00;;;22.00;63.90;;;;;;5028558;28;20098;-72
2021/06/12 10:29:44;;;;;;;0.00;0.00;;;22.20;64.10;;;;;;5029617;28;20054;-72
2021/06/12 10:32:13;;;;;;;0.00;0.00;;;22.50;63.40;;;;;;5027382;28;20544;-76
2021/06/12 10:34:41;;;;;;;0.00;0.00;;;22.60;62.80;;;;;;5027381;28;20051;-72
2021/06/12 10:37:09;;;;;;;0.20;0.00;;;22.80;62.50;;;;;;5027731;28;20091;-72
2021/06/12 10:39:39;;;;;;;0.00;0.00;;;23.00;62.00;;;;;;5025430;28;20041;-73
2021/06/12 10:42:14;;;;;;;0.10;0.00;;;23.00;61.40;;;;;;5028098;28;20176;-72
2021/06/12 10:44:43;;;;;;;0.00;0.00;;;23.10;61.10;;;;;;5028294;28;20093;-72
2021/06/12 10:47:10;;;;;;;0.00;0.00;;;23.20;61.10;;;;;;5028569;28;20053;-74
2021/06/12 10:49:37;;;;;;;0.10;0.00;;;23.30;60.60;;;;;;5028120;28;20057;-72
2021/06/12 10:52:05;;;;;;;0.00;0.00;;;23.30;60.30;;;;;;5027087;28;20440;-72
2021/06/12 10:54:37;;;;;;;0.00;0.00;;;23.40;60.30;;;;;;5019922;28;20107;-73
2021/06/12 10:57:17;;;;;;;0.00;0.00;;;23.50;60.20;;;;;;5027683;28;20057;-73
2021/06/12 10:59:51;;;;;;;0.00;0.00;;;23.60;60.10;;;;;;5015907;28;20049;-67
2021/06/12 11:02:31;;;;;;;0.00;0.00;;;23.70;59.70;;;;;;5021530;28;20103;-67
2021/06/12 11:05:03;;;;;;;0.00;0.00;;;23.70;59.40;;;;;;5020117;28;20072;-67
2021/06/12 11:07:34;;;;;;;0.00;0.00;;;23.90;59.00;;;;;;5027526;28;20053;-67
2021/06/12 11:10:12;;;;;;;0.00;0.00;;;23.90;58.90;;;;;;5027304;28;20129;-67
2021/06/12 11:12:40;;;;;;;0.00;0.00;;;24.00;58.70;;;;;;5021381;28;20424;-67
2021/06/12 11:15:12;;;;;;;0.10;0.00;;;24.00;57.90;;;;;;5026861;28;20515;-67
2021/06/12 11:17:43;;;;;;;0.00;0.00;;;24.00;57.90;;;;;;5027206;28;20103;-67
2021/06/12 11:20:14;;;;;;;0.00;0.00;;;24.00;58.10;;;;;;5027305;28;20128;-67
2021/06/12 11:22:41;;;;;;;0.00;0.00;;;24.10;58.10;;;;;;5027272;28;20128;-67
2021/06/12 11:25:07;;;;;;;0.00;0.00;;;24.10;57.80;;;;;;5028079;28;20868;-67
2021/06/12 11:27:46;;;;;;;0.00;0.00;;;24.10;57.80;;;;;;5027729;28;20045;-67
2021/06/12 11:30:16;;;;;;;0.00;0.00;;;24.20;57.70;;;;;;5027922;28;20125;-67
2021/06/12 11:32:55;;;;;;;0.00;0.00;;;24.20;57.40;;;;;;5039736;28;20049;-67
2021/06/12 11:35:48;;;;;;;0.00;0.00;;;24.30;57.00;;;;;;5032012;28;20685;-67
2021/06/12 11:38:34;;;;;;;0.00;0.00;;;24.30;56.00;;;;;;5031914;28;20053;-67
2021/06/12 11:41:07;;;;;;;0.00;0.00;;;24.30;56.00;;;;;;5018098;28;20136;-67
2021/06/12 11:43:41;;;;;;;0.00;0.00;;;24.30;55.80;;;;;;5031653;28;20073;-67
2021/06/12 11:46:14;;;;;;;0.00;0.00;;;24.30;56.00;;;;;;5031861;28;20053;-67
2021/06/12 11:48:42;;;;;;;0.20;0.00;;;24.30;56.00;;;;;;5031746;28;20115;-67
2021/06/12 11:51:15;;;;;;;0.00;0.00;;;24.30;56.10;;;;;;5031438;28;20057;-67
2021/06/12 11:53:44;;;;;;;0.00;0.00;;;24.40;56.30;;;;;;5042896;28;20113;-67
2021/06/12 11:56:10;;;;;;;0.00;0.00;;;24.40;55.90;;;;;;5023129;28;20517;-67
2021/06/12 11:59:10;;;;;;;0.00;0.00;;;24.40;56.00;;;;;;5033761;28;20053;-65
2021/06/12 12:01:47;;;;;;;0.00;0.00;;;24.40;56.20;;;;;;4948851;29;20055;-65
2021/06/12 12:04:22;;;;;;;0.00;0.00;;;24.40;56.40;;;;;;4941754;29;20142;-65
2021/06/12 12:06:48;;;;;;;0.00;0.00;;;24.40;56.00;;;;;;4925165;29;20109;-65
2021/06/12 12:09:37;;;;;;;0.00;0.00;;;24.40;56.10;;;;;;4945537;29;20167;-65
2021/06/12 12:12:06;;;;;;;0.00;0.00;;;24.40;56.00;;;;;;4941405;29;20061;-65
2021/06/12 12:14:43;;;;;;;0.00;0.00;;;24.50;56.00;;;;;;4936667;29;20138;-62
2021/06/12 12:17:30;;;;;;;0.00;0.00;;;24.50;56.00;;;;;;4953688;29;20415;-65
2021/06/12 12:19:59;;;;;;;0.00;0.00;;;24.50;55.90;;;;;;4943359;29;20189;-64
2021/06/12 12:22:37;;;;;;;0.00;0.00;;;24.50;56.10;;;;;;4939425;29;20094;-65
2021/06/12 12:25:06;;;;;;;0.00;0.00;;;24.60;56.10;;;;;;4940316;29;20198;-63
2021/06/12 12:27:32;;;;;;;0.00;0.00;;;24.60;56.00;;;;;;4951563;29;20074;-69
2021/06/12 12:29:58;;;;;;;0.00;0.00;;;24.60;55.20;;;;;;4952288;29;20059;-63
2021/06/12 12:32:25;;;;;;;0.00;0.00;;;24.60;55.50;;;;;;4951272;29;20462;-68
2021/06/12 12:34:51;;;;;;;0.00;0.00;;;24.60;55.80;;;;;;4953890;29;20171;-68
2021/06/12 12:37:20;;;;;;;0.00;0.00;;;24.70;56.00;;;;;;4990532;28;20083;-70
2021/06/12 12:39:50;;;;;;;0.03;0.00;;;24.70;55.90;;;;;;5015705;28;20149;-67
2021/06/12 12:42:22;;;;;;;0.00;0.00;;;24.70;55.60;;;;;;5018850;28;20125;-68
2021/06/12 12:44:50;;;;;;;0.00;0.00;;;24.60;55.80;;;;;;5013892;28;20098;-69
2021/06/12 12:47:25;;;;;;;0.00;0.00;;;24.60;55.70;;;;;;5033669;28;20505;-69
2021/06/12 12:49:52;;;;;;;0.00;0.00;;;24.50;56.00;;;;;;5025764;28;20143;-69
2021/06/12 12:52:28;;;;;;;0.00;0.00;;;24.50;56.20;;;;;;5029235;28;20378;-70
2021/06/12 12:55:07;;;;;;;0.00;0.00;;;24.50;56.40;;;;;;5015536;28;20060;-68
2021/06/12 12:57:46;;;;;;;0.00;0.00;;;24.50;56.50;;;;;;5034146;28;20171;-68
2021/06/12 13:00:24;;;;;;;0.00;0.00;;;24.50;57.00;;;;;;5038243;28;20060;-68